Time;durP1;ratioP1;P1;durP2;ratioP2;P2;SDS_P1;SDS_P2;PMS_P1;PMS_P2;Temp;Humidity;BMP_temperature;BMP_pressure;BME280_temperature;BME280_humidity;BME280_pressure;Samples;Min_cycle;Max_cycle;Signal;HPM_P1;HPM_P2
2022/03/04 00:01:58;;;;;;;19.30;9.70;;;;;;;;;;4995358;28;20423;-36
2022/03/04 00:04:23;;;;;;;18.95;8.40;;;;;;;;;;4995357;28;20113;-36
2022/03/04 00:06:49;;;;;;;12.27;8.48;;;;;;;;;;4995197;28;20126;-36
2022/03/04 00:09:15;;;;;;;15.07;6.95;;;;;;;;;;4995315;28;20066;-36
2022/03/04 00:11:41;;;;;;;20.23;7.97;;;;;;;;;;4995074;28;20022;-36
2022/03/04 00:14:06;;;;;;;15.30;8.15;;;;;;;;;;4995106;28;20117;-36
2022/03/04 00:16:32;;;;;;;14.95;7.75;;;;;;;;;;4995210;28;20389;-36
2022/03/04 00:19:07;;;;;;;17.65;7.70;;;;;;;;;;4995244;28;20109;-36
2022/03/04 00:21:39;;;;;;;21.42;8.63;;;;;;;;;;4995255;28;20034;-36
2022/03/04 00:24:05;;;;;;;;;;;;;;;;;;4995701;28;20042;-36
2022/03/04 00:26:30;;;;;;;17.67;8.82;;;;;;;;;;4995143;28;20027;-36
2022/03/04 00:28:56;;;;;;;17.17;7.68;;;;;;;;;;4994856;28;20189;-36
2022/03/04 00:31:22;;;;;;;17.83;8.40;;;;;;;;;;4993816;28;20069;-36
2022/03/04 00:33:48;;;;;;;25.13;8.48;;;;;;;;;;4994618;28;20050;-36
2022/03/04 00:36:13;;;;;;;19.70;7.82;;;;;;;;;;4995039;28;20018;-36
2022/03/04 00:38:39;;;;;;;20.88;8.20;;;;;;;;;;4994940;28;20030;-36
2022/03/04 00:41:04;;;;;;;14.63;6.78;;;;;;;;;;4994671;28;20031;-36
2022/03/04 00:43:30;;;;;;;14.30;8.35;;;;;;;;;;4994540;28;20058;-36
2022/03/04 00:45:55;;;;;;;18.80;6.90;;;;;;;;;;4994810;28;20038;-36
2022/03/04 00:48:21;;;;;;;12.40;6.75;;;;;;;;;;4994789;28;20507;-36
2022/03/04 00:50:46;;;;;;;16.27;6.82;;;;;;;;;;4994519;28;20019;-36
2022/03/04 00:53:11;;;;;;;11.48;6.05;;;;;;;;;;4994379;28;20417;-36
2022/03/04 00:55:37;;;;;;;11.00;6.07;;;;;;;;;;4994575;28;20065;-36
2022/03/04 00:58:06;;;;;;;13.45;8.13;;;;;;;;;;4994448;28;20114;-36
2022/03/04 01:00:33;;;;;;;12.82;7.00;;;;;;;;;;4994554;28;20626;-36
2022/03/04 01:02:59;;;;;;;14.73;6.88;;;;;;;;;;4993131;28;20095;-36
2022/03/04 01:05:24;;;;;;;11.05;6.65;;;;;;;;;;4994196;28;20030;-36
2022/03/04 01:07:50;;;;;;;12.45;4.90;;;;;;;;;;4994103;28;20041;-36
2022/03/04 01:10:16;;;;;;;12.95;5.53;;;;;;;;;;4994149;28;20105;-37
2022/03/04 01:12:41;;;;;;;11.88;6.07;;;;;;;;;;4994329;28;20113;-36
2022/03/04 01:15:07;;;;;;;12.82;7.35;;;;;;;;;;4994277;28;20437;-36
2022/03/04 01:17:33;;;;;;;15.18;6.82;;;;;;;;;;4994071;28;20037;-35
2022/03/04 01:19:58;;;;;;;12.43;5.97;;;;;;;;;;4994004;28;20520;-36
2022/03/04 01:22:23;;;;;;;12.35;5.15;;;;;;;;;;4993871;28;20105;-36
2022/03/04 01:24:49;;;;;;;11.38;5.57;;;;;;;;;;4993865;28;20034;-36
2022/03/04 01:27:14;;;;;;;12.07;6.00;;;;;;;;;;4994141;28;20058;-36
2022/03/04 01:29:40;;;;;;;9.88;5.32;;;;;;;;;;4993765;28;20380;-36
2022/03/04 01:32:05;;;;;;;11.38;5.70;;;;;;;;;;4993952;28;20030;-36
2022/03/04 01:34:31;;;;;;;13.30;6.15;;;;;;;;;;4993633;28;20389;-36
2022/03/04 01:36:56;;;;;;;13.93;6.03;;;;;;;;;;4993891;28;20023;-36
2022/03/04 01:39:21;;;;;;;14.20;5.50;;;;;;;;;;4993653;28;20713;-36
2022/03/04 01:41:47;;;;;;;13.95;6.70;;;;;;;;;;4993525;28;20050;-36
2022/03/04 01:44:12;;;;;;;13.77;5.72;;;;;;;;;;4993573;28;20042;-37
2022/03/04 01:46:37;;;;;;;13.30;6.35;;;;;;;;;;5008762;28;20030;-36
2022/03/04 01:49:03;;;;;;;13.00;7.25;;;;;;;;;;4993782;28;20026;-36
2022/03/04 01:51:29;;;;;;;10.00;5.18;;;;;;;;;;4993284;28;20560;-36
2022/03/04 01:53:54;;;;;;;14.35;6.47;;;;;;;;;;4993348;28;20076;-36
2022/03/04 01:56:21;;;;;;;10.15;5.65;;;;;;;;;;4993342;28;20110;-36
2022/03/04 01:58:47;;;;;;;13.60;5.32;;;;;;;;;;4993417;28;20018;-36
2022/03/04 02:01:12;;;;;;;15.27;6.53;;;;;;;;;;4993198;28;20034;-36
2022/03/04 02:03:38;;;;;;;15.95;7.13;;;;;;;;;;4993190;28;20068;-35
2022/03/04 02:06:03;;;;;;;14.77;6.38;;;;;;;;;;4993299;28;20097;-36
2022/03/04 02:08:28;;;;;;;15.82;5.93;;;;;;;;;;4993141;28;20029;-36
2022/03/04 02:10:54;;;;;;;14.77;6.93;;;;;;;;;;4993124;28;20093;-36
2022/03/04 02:13:20;;;;;;;19.58;7.68;;;;;;;;;;4992926;28;20117;-36
2022/03/04 02:15:46;;;;;;;17.38;6.90;;;;;;;;;;5007915;28;20540;-36
2022/03/04 02:18:12;;;;;;;14.63;6.10;;;;;;;;;;4992882;28;20065;-36
2022/03/04 02:20:39;;;;;;;14.30;6.80;;;;;;;;;;4993133;28;20080;-36
2022/03/04 02:23:04;;;;;;;10.93;6.22;;;;;;;;;;4992780;28;20023;-36
2022/03/04 02:25:30;;;;;;;20.83;6.43;;;;;;;;;;4992799;28;20036;-36
2022/03/04 02:27:55;;;;;;;12.15;6.45;;;;;;;;;;4992864;28;20030;-36
2022/03/04 02:30:20;;;;;;;14.98;6.35;;;;;;;;;;4992943;28;20388;-36
2022/03/04 02:32:46;;;;;;;16.88;5.47;;;;;;;;;;4992667;28;20399;-36
2022/03/04 02:35:11;;;;;;;16.88;7.28;;;;;;;;;;5007522;28;20082;-36
2022/03/04 02:37:39;;;;;;;11.65;6.13;;;;;;;;;;4992555;28;20046;-35
2022/03/04 02:40:05;;;;;;;16.88;6.80;;;;;;;;;;4992442;28;20827;-36
2022/03/04 02:42:31;;;;;;;13.77;5.97;;;;;;;;;;4992265;28;20050;-36
2022/03/04 02:44:56;;;;;;;24.33;6.63;;;;;;;;;;4992669;28;20026;-36
2022/03/04 02:47:21;;;;;;;10.52;5.70;;;;;;;;;;4992369;28;20084;-36
2022/03/04 02:49:47;;;;;;;17.30;5.57;;;;;;;;;;4992586;28;20050;-36
2022/03/04 02:52:12;;;;;;;14.05;7.30;;;;;;;;;;4992634;28;20030;-36
2022/03/04 02:54:37;;;;;;;12.52;6.53;;;;;;;;;;4992169;28;20084;-35
2022/03/04 02:57:03;;;;;;;12.77;6.30;;;;;;;;;;4992420;28;20022;-36
2022/03/04 02:59:29;;;;;;;12.98;6.47;;;;;;;;;;4992581;28;20494;-36
2022/03/04 03:01:54;;;;;;;18.90;7.35;;;;;;;;;;4992007;28;20022;-36
2022/03/04 03:04:19;;;;;;;12.55;6.55;;;;;;;;;;4992245;28;20090;-36
2022/03/04 03:06:45;;;;;;;12.98;6.82;;;;;;;;;;4992327;28;20026;-36
2022/03/04 03:09:11;;;;;;;15.82;6.35;;;;;;;;;;4992090;28;20045;-36
2022/03/04 03:11:36;;;;;;;12.25;6.72;;;;;;;;;;4992392;28;20038;-36
2022/03/04 03:14:02;;;;;;;15.45;6.78;;;;;;;;;;4992206;28;20463;-36
2022/03/04 03:16:27;;;;;;;13.65;6.55;;;;;;;;;;4992100;28;20028;-36
2022/03/04 03:18:52;;;;;;;11.77;6.63;;;;;;;;;;4992225;28;20030;-36
2022/03/04 03:21:18;;;;;;;13.68;6.68;;;;;;;;;;4991995;28;20014;-36
2022/03/04 03:23:45;;;;;;;11.50;5.43;;;;;;;;;;4992141;28;20358;-36
2022/03/04 03:26:10;;;;;;;14.27;6.25;;;;;;;;;;4994436;28;20041;-36
2022/03/04 03:28:36;;;;;;;19.98;6.55;;;;;;;;;;4996108;28;20533;-37
2022/03/04 03:31:01;;;;;;;14.05;6.22;;;;;;;;;;5010857;28;20026;-36
2022/03/04 03:33:26;;;;;;;10.77;6.72;;;;;;;;;;4996137;28;20045;-36
2022/03/04 03:35:54;;;;;;;14.82;5.97;;;;;;;;;;4996146;28;20460;-36
2022/03/04 03:38:23;;;;;;;13.80;7.05;;;;;;;;;;4996099;28;20471;-36
2022/03/04 03:40:49;;;;;;;11.50;7.20;;;;;;;;;;4996037;28;20384;-37
2022/03/04 03:43:14;;;;;;;19.38;7.35;;;;;;;;;;4995574;28;20061;-36
2022/03/04 03:45:40;;;;;;;9.85;5.97;;;;;;;;;;4995958;28;20042;-36
2022/03/04 03:48:05;;;;;;;17.83;8.43;;;;;;;;;;4996041;28;20073;-38
2022/03/04 03:50:31;;;;;;;10.93;5.85;;;;;;;;;;4995657;28;20045;-36
2022/03/04 03:52:56;;;;;;;17.15;7.78;;;;;;;;;;4995666;28;20026;-35
2022/03/04 03:55:22;;;;;;;14.20;7.72;;;;;;;;;;4995855;28;20026;-36
2022/03/04 03:57:47;;;;;;;13.05;6.32;;;;;;;;;;4995745;28;20030;-36
2022/03/04 04:00:13;;;;;;;18.58;6.63;;;;;;;;;;4995449;28;20027;-36
2022/03/04 04:02:39;;;;;;;11.57;5.85;;;;;;;;;;4994209;28;20030;-37
2022/03/04 04:05:05;;;;;;;11.50;4.55;;;;;;;;;;4995309;28;20014;-36
2022/03/04 04:07:31;;;;;;;12.30;6.75;;;;;;;;;;4995502;28;20033;-36
2022/03/04 04:09:56;;;;;;;15.10;6.38;;;;;;;;;;4995210;28;20022;-36
2022/03/04 04:12:22;;;;;;;13.65;5.32;;;;;;;;;;4995329;28;20030;-36
2022/03/04 04:14:47;;;;;;;15.75;6.20;;;;;;;;;;4995040;28;20089;-36
2022/03/04 04:17:13;;;;;;;15.57;6.45;;;;;;;;;;4995211;28;20105;-36
2022/03/04 04:19:38;;;;;;;19.73;6.13;;;;;;;;;;4995159;28;20022;-35
2022/03/04 04:22:04;;;;;;;13.32;7.20;;;;;;;;;;4995222;28;20031;-36
2022/03/04 04:24:29;;;;;;;11.55;6.72;;;;;;;;;;5010442;28;20032;-36
2022/03/04 04:26:55;;;;;;;18.95;6.90;;;;;;;;;;4994902;28;20026;-36
2022/03/04 04:29:20;;;;;;;8.98;6.05;;;;;;;;;;4994925;28;20022;-36
2022/03/04 04:31:46;;;;;;;20.92;8.15;;;;;;;;;;4994726;28;20057;-37
2022/03/04 04:34:11;;;;;;;15.73;7.22;;;;;;;;;;4995071;28;20058;-36
2022/03/04 04:36:37;;;;;;;16.48;7.05;;;;;;;;;;4994742;28;20030;-36
2022/03/04 04:39:03;;;;;;;20.48;6.57;;;;;;;;;;4994644;28;20623;-36
2022/03/04 04:41:28;;;;;;;24.70;8.93;;;;;;;;;;4994606;28;20037;-36
2022/03/04 04:43:53;;;;;;;18.83;6.85;;;;;;;;;;4994505;28;20058;-36
2022/03/04 04:46:19;;;;;;;18.42;7.97;;;;;;;;;;4994564;28;20051;-36
2022/03/04 04:48:44;;;;;;;12.80;5.65;;;;;;;;;;4994516;28;20042;-36
2022/03/04 04:51:10;;;;;;;18.35;6.60;;;;;;;;;;4993552;28;20026;-36
2022/03/04 04:53:35;;;;;;;13.52;5.25;;;;;;;;;;4994401;28;20035;-36
2022/03/04 04:56:01;;;;;;;17.77;7.15;;;;;;;;;;5009275;28;20034;-41
2022/03/04 04:58:26;;;;;;;17.30;7.30;;;;;;;;;;4994687;28;20036;-37
2022/03/04 05:00:55;;;;;;;13.07;7.13;;;;;;;;;;4994510;28;20093;-36
2022/03/04 05:03:21;;;;;;;14.90;6.68;;;;;;;;;;4994257;28;20475;-36
2022/03/04 05:05:47;;;;;;;15.63;6.25;;;;;;;;;;4994512;28;20034;-36
2022/03/04 05:08:12;;;;;;;10.82;6.38;;;;;;;;;;4994471;28;20465;-36
2022/03/04 05:10:38;;;;;;;14.25;7.18;;;;;;;;;;4994188;28;20122;-36
2022/03/04 05:13:03;;;;;;;18.40;6.40;;;;;;;;;;4994250;28;20033;-36
2022/03/04 05:15:29;;;;;;;14.55;6.22;;;;;;;;;;4994171;28;20437;-36
2022/03/04 05:17:54;;;;;;;14.35;6.78;;;;;;;;;;4993895;28;20037;-36
2022/03/04 05:20:20;;;;;;;11.77;6.45;;;;;;;;;;4994189;28;20036;-36
2022/03/04 05:22:45;;;;;;;10.80;5.97;;;;;;;;;;4993946;28;20084;-36
2022/03/04 05:25:11;;;;;;;17.35;7.22;;;;;;;;;;5008844;28;20100;-36
2022/03/04 05:27:36;;;;;;;12.52;7.05;;;;;;;;;;4993993;28;20019;-35
2022/03/04 05:30:02;;;;;;;15.70;6.75;;;;;;;;;;4993679;28;20034;-36
2022/03/04 05:32:28;;;;;;;14.40;6.97;;;;;;;;;;4993805;28;20018;-36
2022/03/04 05:34:53;;;;;;;26.55;9.00;;;;;;;;;;4993586;28;20037;-36
2022/03/04 05:37:20;;;;;;;20.05;6.93;;;;;;;;;;4993647;28;20054;-36
2022/03/04 05:39:45;;;;;;;19.23;5.93;;;;;;;;;;4993780;28;20044;-36
2022/03/04 05:42:10;;;;;;;16.17;7.32;;;;;;;;;;4993492;28;20084;-36
2022/03/04 05:44:36;;;;;;;16.45;7.00;;;;;;;;;;4992427;28;20523;-36
2022/03/04 05:47:01;;;;;;;15.13;6.20;;;;;;;;;;4993698;28;20038;-36
2022/03/04 05:49:27;;;;;;;13.18;7.07;;;;;;;;;;4992902;28;20042;-36
2022/03/04 05:51:52;;;;;;;16.60;7.07;;;;;;;;;;4993297;28;20029;-36
2022/03/04 05:54:18;;;;;;;15.07;7.65;;;;;;;;;;4993248;28;20046;-36
2022/03/04 05:56:43;;;;;;;14.80;6.05;;;;;;;;;;4993520;28;20069;-36
2022/03/04 05:59:08;;;;;;;13.98;6.57;;;;;;;;;;4993270;28;20038;-36
2022/03/04 06:01:37;;;;;;;13.75;7.43;;;;;;;;;;4993129;28;20019;-35
2022/03/04 06:04:03;;;;;;;16.63;6.82;;;;;;;;;;4993381;28;20057;-36
2022/03/04 06:06:28;;;;;;;14.27;6.95;;;;;;;;;;4993093;28;20457;-36
2022/03/04 06:08:54;;;;;;;10.38;4.63;;;;;;;;;;4993210;28;20037;-36
2022/03/04 06:11:20;;;;;;;11.50;6.50;;;;;;;;;;4993061;28;20034;-36
2022/03/04 06:13:45;;;;;;;13.48;6.40;;;;;;;;;;4992741;28;20042;-36
2022/03/04 06:16:11;;;;;;;16.40;7.25;;;;;;;;;;4991647;28;20117;-36
2022/03/04 06:18:37;;;;;;;19.08;6.93;;;;;;;;;;4992935;28;20035;-35
2022/03/04 06:21:03;;;;;;;12.85;6.00;;;;;;;;;;4992955;28;20045;-36
2022/03/04 06:23:28;;;;;;;11.70;6.70;;;;;;;;;;4992769;28;20049;-36
2022/03/04 06:25:55;;;;;;;17.05;6.28;;;;;;;;;;4992682;28;20156;-36
2022/03/04 06:28:21;;;;;;;14.65;8.38;;;;;;;;;;4992722;28;20034;-35
2022/03/04 06:30:46;;;;;;;12.00;5.47;;;;;;;;;;4992645;28;20026;-36
2022/03/04 06:33:30;;;;;;;10.73;5.70;;;;;;;;;;4992569;28;20390;-38
2022/03/04 06:36:05;;;;;;;12.90;7.75;;;;;;;;;;4992572;28;20030;-36
2022/03/04 06:38:32;;;;;;;15.52;7.53;;;;;;;;;;4992598;28;20030;-36
2022/03/04 06:40:58;;;;;;;12.60;5.78;;;;;;;;;;4992411;28;20096;-36
2022/03/04 06:43:24;;;;;;;16.13;6.88;;;;;;;;;;4992292;28;20058;-35
2022/03/04 06:45:49;;;;;;;15.48;6.93;;;;;;;;;;4992440;28;20119;-36
2022/03/04 06:48:17;;;;;;;15.05;6.80;;;;;;;;;;4992413;28;20045;-36
2022/03/04 06:50:43;;;;;;;13.57;6.57;;;;;;;;;;4991056;28;20465;-36
2022/03/04 06:53:09;;;;;;;15.18;7.05;;;;;;;;;;4992292;28;20153;-35
2022/03/04 06:55:35;;;;;;;19.38;6.55;;;;;;;;;;4991113;28;20034;-36
2022/03/04 06:58:00;;;;;;;16.02;6.88;;;;;;;;;;4992171;28;20034;-36
2022/03/04 07:00:27;;;;;;;19.08;7.50;;;;;;;;;;4991420;28;20026;-36
2022/03/04 07:02:52;;;;;;;8.75;5.47;;;;;;;;;;4992441;28;20041;-36
2022/03/04 07:05:21;;;;;;;14.52;7.60;;;;;;;;;;4992151;28;20093;-36
2022/03/04 07:07:50;;;;;;;12.45;5.60;;;;;;;;;;4992342;28;20027;-36
2022/03/04 07:10:16;;;;;;;12.73;7.00;;;;;;;;;;4992115;28;20057;-37
2022/03/04 07:12:41;;;;;;;19.45;6.50;;;;;;;;;;4992054;28;20120;-36
2022/03/04 07:15:07;;;;;;;14.57;5.60;;;;;;;;;;4992180;28;20039;-36
2022/03/04 07:17:33;;;;;;;19.08;7.45;;;;;;;;;;4992042;28;20029;-36
2022/03/04 07:19:58;;;;;;;15.52;7.25;;;;;;;;;;4992212;28;20023;-36
2022/03/04 07:22:24;;;;;;;14.82;7.40;;;;;;;;;;4992033;28;20424;-36
2022/03/04 07:24:49;;;;;;;13.40;5.75;;;;;;;;;;4991965;28;20035;-36
2022/03/04 07:27:14;;;;;;;15.18;7.57;;;;;;;;;;4992177;28;20022;-37
2022/03/04 07:29:40;;;;;;;15.35;7.18;;;;;;;;;;4991969;28;20461;-36
2022/03/04 07:32:06;;;;;;;18.27;8.32;;;;;;;;;;4991821;28;20050;-36
2022/03/04 07:34:31;;;;;;;11.68;6.63;;;;;;;;;;4991835;28;20038;-35
2022/03/04 07:36:57;;;;;;;11.02;6.25;;;;;;;;;;4992116;28;20034;-35
2022/03/04 07:39:23;;;;;;;13.70;5.55;;;;;;;;;;4991802;28;20408;-36
2022/03/04 07:41:48;;;;;;;17.00;6.88;;;;;;;;;;4991805;28;20023;-37
2022/03/04 07:44:14;;;;;;;20.73;6.43;;;;;;;;;;4991843;28;20039;-35
2022/03/04 07:46:40;;;;;;;16.98;6.35;;;;;;;;;;4991813;28;20042;-36
2022/03/04 07:49:05;;;;;;;17.73;6.03;;;;;;;;;;4991686;28;20040;-36
2022/03/04 07:51:31;;;;;;;14.27;7.35;;;;;;;;;;4991788;28;20392;-36
2022/03/04 07:53:56;;;;;;;16.10;5.35;;;;;;;;;;4991759;28;20038;-36
2022/03/04 07:56:23;;;;;;;13.02;5.72;;;;;;;;;;4991796;28;20509;-36
2022/03/04 07:58:49;;;;;;;12.60;5.53;;;;;;;;;;4991966;28;20022;-36
2022/03/04 08:01:15;;;;;;;12.10;5.03;;;;;;;;;;4991917;28;20103;-36
2022/03/04 08:03:42;;;;;;;17.58;6.45;;;;;;;;;;4991606;28;20538;-36
2022/03/04 08:06:08;;;;;;;9.93;5.00;;;;;;;;;;4991868;28;20038;-36
2022/03/04 08:08:34;;;;;;;12.90;6.15;;;;;;;;;;4991550;28;20128;-36
2022/03/04 08:11:00;;;;;;;11.80;5.43;;;;;;;;;;4991653;28;20031;-35
2022/03/04 08:13:25;;;;;;;12.80;6.25;;;;;;;;;;4995275;28;20029;-36
2022/03/04 08:15:51;;;;;;;11.57;5.13;;;;;;;;;;4995070;28;20034;-36
2022/03/04 08:18:16;;;;;;;15.38;5.28;;;;;;;;;;4995512;28;20053;-36
2022/03/04 08:20:41;;;;;;;10.25;5.88;;;;;;;;;;4995413;28;20092;-36
2022/03/04 08:23:07;;;;;;;11.00;5.68;;;;;;;;;;4993637;28;20026;-35
2022/03/04 08:25:33;;;;;;;12.48;6.00;;;;;;;;;;4995108;28;20034;-36
2022/03/04 08:27:59;;;;;;;16.27;6.20;;;;;;;;;;4994941;28;20025;-35
2022/03/04 08:30:25;;;;;;;8.13;4.88;;;;;;;;;;5009890;28;20030;-36
2022/03/04 08:32:50;;;;;;;12.95;6.95;;;;;;;;;;4994804;28;20160;-36
2022/03/04 08:35:16;;;;;;;12.70;6.45;;;;;;;;;;4994835;28;20567;-36
2022/03/04 08:37:42;;;;;;;12.50;5.68;;;;;;;;;;4994739;28;20021;-35
2022/03/04 08:40:09;;;;;;;15.40;6.10;;;;;;;;;;4994621;28;20022;-36
2022/03/04 08:42:35;;;;;;;15.23;5.82;;;;;;;;;;4994543;28;20054;-36
2022/03/04 08:45:02;;;;;;;16.60;8.82;;;;;;;;;;4994593;28;20109;-36
2022/03/04 08:47:28;;;;;;;11.05;5.38;;;;;;;;;;4994672;28;20033;-36
2022/03/04 08:49:54;;;;;;;13.60;5.38;;;;;;;;;;4994443;28;20023;-36
2022/03/04 08:52:19;;;;;;;7.82;4.78;;;;;;;;;;4994462;28;20036;-36
2022/03/04 08:54:45;;;;;;;13.82;6.25;;;;;;;;;;4994643;28;20070;-36
2022/03/04 08:57:12;;;;;;;13.20;5.88;;;;;;;;;;4994493;28;20552;-35
2022/03/04 08:59:38;;;;;;;12.93;5.63;;;;;;;;;;4994340;28;20564;-36
2022/03/04 09:02:04;;;;;;;12.23;5.53;;;;;;;;;;4994592;28;20053;-36
2022/03/04 09:04:30;;;;;;;14.05;6.55;;;;;;;;;;4994340;28;20480;-40
2022/03/04 09:06:56;;;;;;;19.40;7.53;;;;;;;;;;4994083;28;20097;-36
2022/03/04 09:09:22;;;;;;;15.77;6.60;;;;;;;;;;4994328;28;20042;-36
2022/03/04 09:11:47;;;;;;;13.00;6.50;;;;;;;;;;4994308;28;20042;-36
2022/03/04 09:14:13;;;;;;;10.23;5.05;;;;;;;;;;4994066;28;20436;-36
2022/03/04 09:16:39;;;;;;;12.88;5.97;;;;;;;;;;4994104;28;20486;-36
2022/03/04 09:19:04;;;;;;;7.63;4.30;;;;;;;;;;4993937;28;20026;-36
2022/03/04 09:21:30;;;;;;;11.48;6.32;;;;;;;;;;4994280;28;20488;-37
2022/03/04 09:23:55;;;;;;;10.68;5.68;;;;;;;;;;4993241;28;20029;-36
2022/03/04 09:26:21;;;;;;;12.45;6.20;;;;;;;;;;4994165;28;20026;-36
2022/03/04 09:28:47;;;;;;;13.32;6.47;;;;;;;;;;4994101;28;20034;-36
2022/03/04 09:31:13;;;;;;;12.05;5.47;;;;;;;;;;4994128;28;20026;-36
2022/03/04 09:33:38;;;;;;;10.48;5.72;;;;;;;;;;4993926;28;20381;-36
2022/03/04 09:36:05;;;;;;;15.52;6.45;;;;;;;;;;4993721;28;20014;-36
2022/03/04 09:38:31;;;;;;;15.00;6.30;;;;;;;;;;4993737;28;20089;-36
2022/03/04 09:40:57;;;;;;;9.80;5.55;;;;;;;;;;4993476;28;20473;-36
2022/03/04 09:43:22;;;;;;;10.73;5.28;;;;;;;;;;4993488;28;20097;-36
2022/03/04 09:45:49;;;;;;;6.03;3.90;;;;;;;;;;4992197;28;20030;-36
2022/03/04 09:48:15;;;;;;;11.73;5.22;;;;;;;;;;4993466;28;20038;-36
2022/03/04 09:50:43;;;;;;;10.80;5.55;;;;;;;;;;4993401;28;20101;-36
2022/03/04 09:53:11;;;;;;;5.22;2.63;;;;;;;;;;4993322;28;20386;-36
2022/03/04 09:55:37;;;;;;;8.40;3.75;;;;;;;;;;4993622;28;20416;-36
2022/03/04 09:58:07;;;;;;;22.20;5.63;;;;;;;;;;4993533;28;20034;-36
2022/03/04 10:00:33;;;;;;;8.70;5.55;;;;;;;;;;4993298;28;20062;-36
2022/03/04 10:02:58;;;;;;;15.68;5.75;;;;;;;;;;4993068;28;20061;-36
2022/03/04 10:05:24;;;;;;;12.40;5.80;;;;;;;;;;4993534;28;20429;-36
2022/03/04 10:07:50;;;;;;;10.07;5.28;;;;;;;;;;4993082;28;20117;-36
2022/03/04 10:10:22;;;;;;;7.65;3.67;;;;;;;;;;4993229;28;20030;-36
2022/03/04 10:12:47;;;;;;;12.82;4.85;;;;;;;;;;4992948;28;20473;-36
2022/03/04 10:15:13;;;;;;;10.93;4.63;;;;;;;;;;4992969;28;20070;-36
2022/03/04 10:17:39;;;;;;;9.05;4.80;;;;;;;;;;4992950;28;20034;-36
2022/03/04 10:20:09;;;;;;;8.02;4.28;;;;;;;;;;4993055;28;20027;-36
2022/03/04 10:22:37;;;;;;;7.18;3.90;;;;;;;;;;4993223;28;20389;-36
2022/03/04 10:25:23;;;;;;;8.48;4.55;;;;;;;;;;4992705;28;20381;-36
2022/03/04 10:27:49;;;;;;;11.25;5.07;;;;;;;;;;4992647;28;20137;-36
2022/03/04 10:30:15;;;;;;;14.38;5.10;;;;;;;;;;4991381;28;20164;-36
2022/03/04 10:32:41;;;;;;;14.13;5.15;;;;;;;;;;4992703;28;20027;-36
2022/03/04 10:35:08;;;;;;;11.75;5.22;;;;;;;;;;4992323;28;20042;-36
2022/03/04 10:37:41;;;;;;;10.57;5.32;;;;;;;;;;4992776;28;20033;-36
2022/03/04 10:40:07;;;;;;;;;;;;;;;;;;4992933;28;20129;-36
2022/03/04 10:42:40;;;;;;;11.00;5.15;;;;;;;;;;4992410;28;19996;-36
2022/03/04 10:45:10;;;;;;;8.52;4.05;;;;;;;;;;4992401;28;20062;-36
2022/03/04 10:47:39;;;;;;;7.35;3.40;;;;;;;;;;4992512;28;20120;-35
2022/03/04 10:50:06;;;;;;;7.18;3.13;;;;;;;;;;4992310;28;20169;-36
2022/03/04 10:52:32;;;;;;;15.02;4.10;;;;;;;;;;4992592;28;20109;-35
2022/03/04 10:54:58;;;;;;;11.75;4.07;;;;;;;;;;4992486;28;20066;-36
2022/03/04 10:57:23;;;;;;;6.00;3.47;;;;;;;;;;4992352;28;20206;-36
2022/03/04 10:59:56;;;;;;;10.77;3.80;;;;;;;;;;4992382;28;20042;-36
2022/03/04 11:02:40;;;;;;;9.70;4.70;;;;;;;;;;4992302;28;20113;-36
2022/03/04 11:05:05;;;;;;;8.00;4.93;;;;;;;;;;4992136;28;20041;-36
2022/03/04 11:07:31;;;;;;;10.32;4.45;;;;;;;;;;4992115;28;20022;-36
2022/03/04 11:09:57;;;;;;;8.60;4.68;;;;;;;;;;4992014;28;20030;-36
2022/03/04 11:12:22;;;;;;;8.45;4.43;;;;;;;;;;4992472;28;20085;-36
2022/03/04 11:14:47;;;;;;;10.85;3.72;;;;;;;;;;4992032;28;20055;-36
2022/03/04 11:17:13;;;;;;;11.77;4.82;;;;;;;;;;4992090;28;20026;-36
2022/03/04 11:19:39;;;;;;;8.10;4.15;;;;;;;;;;4992060;28;20393;-36
2022/03/04 11:22:05;;;;;;;4.63;3.00;;;;;;;;;;4991880;28;20018;-36
2022/03/04 11:24:35;;;;;;;9.60;4.30;;;;;;;;;;4992305;28;20037;-36
2022/03/04 11:27:04;;;;;;;11.65;4.28;;;;;;;;;;5006930;28;20022;-36
2022/03/04 11:29:34;;;;;;;6.68;3.72;;;;;;;;;;4991887;28;20037;-36
2022/03/04 11:32:01;;;;;;;11.60;5.32;;;;;;;;;;4991801;28;20138;-36
2022/03/04 11:34:39;;;;;;;10.45;4.95;;;;;;;;;;4992073;28;20045;-35
2022/03/04 11:37:13;;;;;;;13.18;5.53;;;;;;;;;;4992068;28;20088;-36
2022/03/04 11:39:58;;;;;;;10.18;4.55;;;;;;;;;;4991816;28;20129;-36
2022/03/04 11:42:26;;;;;;;7.60;3.83;;;;;;;;;;4991820;28;20042;-36
2022/03/04 11:44:53;;;;;;;10.63;4.25;;;;;;;;;;4992110;28;20384;-36
2022/03/04 11:47:19;;;;;;;6.28;3.30;;;;;;;;;;4994009;28;20030;-36
2022/03/04 11:49:46;;;;;;;5.18;2.45;;;;;;;;;;5010757;28;20109;-36
2022/03/04 11:52:12;;;;;;;5.95;3.60;;;;;;;;;;4995603;28;20428;-36
2022/03/04 11:54:40;;;;;;;5.38;3.42;;;;;;;;;;4995793;28;20046;-41
2022/03/04 11:57:18;;;;;;;9.75;4.18;;;;;;;;;;4995408;28;20027;-36
2022/03/04 12:00:02;;;;;;;5.35;3.50;;;;;;;;;;4995519;28;20033;-36
2022/03/04 12:02:48;;;;;;;12.00;3.83;;;;;;;;;;4995762;28;20045;-36
2022/03/04 12:05:25;;;;;;;7.13;4.18;;;;;;;;;;4995732;28;20059;-36
2022/03/04 12:07:56;;;;;;;8.93;4.68;;;;;;;;;;4995350;28;20038;-36
2022/03/04 12:10:23;;;;;;;5.75;3.13;;;;;;;;;;4995268;28;20027;-36
2022/03/04 12:13:01;;;;;;;12.32;4.70;;;;;;;;;;4995632;28;20385;-36
2022/03/04 12:15:26;;;;;;;4.60;2.63;;;;;;;;;;4995183;28;20042;-36
2022/03/04 12:17:53;;;;;;;9.27;3.97;;;;;;;;;;4995306;28;20022;-36
2022/03/04 12:20:28;;;;;;;11.85;4.40;;;;;;;;;;4995381;28;20037;-36
2022/03/04 12:22:58;;;;;;;12.73;4.63;;;;;;;;;;4995301;28;20018;-35
2022/03/04 12:25:43;;;;;;;7.35;3.22;;;;;;;;;;4994949;28;20026;-36
2022/03/04 12:28:13;;;;;;;6.53;3.38;;;;;;;;;;4994876;28;20026;-37
2022/03/04 12:30:39;;;;;;;10.70;2.75;;;;;;;;;;4995251;28;20041;-35
2022/03/04 12:33:04;;;;;;;3.90;3.10;;;;;;;;;;4994815;28;20380;-36
2022/03/04 12:35:30;;;;;;;6.63;3.80;;;;;;;;;;4995014;28;20046;-36
2022/03/04 12:37:56;;;;;;;7.82;3.72;;;;;;;;;;4994853;28;20015;-36
2022/03/04 12:40:22;;;;;;;4.25;1.92;;;;;;;;;;4994741;28;20034;-36
2022/03/04 12:42:54;;;;;;;10.23;3.38;;;;;;;;;;4994826;28;20054;-36
2022/03/04 12:45:19;;;;;;;8.00;3.85;;;;;;;;;;4994716;28;20085;-36
2022/03/04 12:47:45;;;;;;;8.18;3.28;;;;;;;;;;4994990;28;20035;-36
2022/03/04 12:50:11;;;;;;;7.68;3.47;;;;;;;;;;4994572;28;20035;-36
2022/03/04 12:52:37;;;;;;;9.60;3.95;;;;;;;;;;4994516;28;20477;-36
2022/03/04 12:55:06;;;;;;;6.63;3.78;;;;;;;;;;4994362;28;20080;-36
2022/03/04 12:57:31;;;;;;;8.32;3.97;;;;;;;;;;4993640;28;20023;-36
2022/03/04 12:59:58;;;;;;;7.93;3.00;;;;;;;;;;4994006;28;20049;-36
2022/03/04 13:02:32;;;;;;;8.98;4.03;;;;;;;;;;4994469;28;20054;-36
2022/03/04 13:05:02;;;;;;;6.88;3.70;;;;;;;;;;4994628;28;20034;-36
2022/03/04 13:07:28;;;;;;;12.40;4.03;;;;;;;;;;4994587;28;20424;-36
2022/03/04 13:09:55;;;;;;;6.93;3.67;;;;;;;;;;4994076;28;20072;-36
2022/03/04 13:12:21;;;;;;;9.63;3.70;;;;;;;;;;4994321;28;20113;-36
2022/03/04 13:14:47;;;;;;;7.05;3.45;;;;;;;;;;4994089;28;20501;-36
2022/03/04 13:17:13;;;;;;;7.35;3.72;;;;;;;;;;4994039;28;20022;-35
2022/03/04 13:19:41;;;;;;;8.48;3.80;;;;;;;;;;4994089;28;20098;-36
2022/03/04 13:22:12;;;;;;;6.85;3.85;;;;;;;;;;4994467;28;20350;-36
2022/03/04 13:24:56;;;;;;;10.23;4.03;;;;;;;;;;4994021;28;20042;-36
2022/03/04 13:27:22;;;;;;;6.07;3.80;;;;;;;;;;4994006;28;20045;-36
2022/03/04 13:29:49;;;;;;;10.02;4.35;;;;;;;;;;4994132;28;20026;-36
2022/03/04 13:32:16;;;;;;;6.63;3.10;;;;;;;;;;4993803;28;20062;-36
2022/03/04 13:34:45;;;;;;;9.30;4.43;;;;;;;;;;4994062;28;20034;-37
2022/03/04 13:37:19;;;;;;;8.27;3.83;;;;;;;;;;4993567;28;20069;-37
2022/03/04 13:39:44;;;;;;;;;;;;;;;;;;4994447;28;20041;-36
2022/03/04 13:42:09;;;;;;;7.32;3.40;;;;;;;;;;4993383;28;19914;-36
2022/03/04 13:44:35;;;;;;;6.57;3.38;;;;;;;;;;4994072;28;20037;-36
2022/03/04 13:47:03;;;;;;;15.85;3.45;;;;;;;;;;4993911;28;20109;-36
2022/03/04 13:49:42;;;;;;;4.75;2.88;;;;;;;;;;4993736;28;20429;-36
2022/03/04 13:52:08;;;;;;;10.13;3.97;;;;;;;;;;4993663;28;20378;-37
2022/03/04 13:55:12;;;;;;;9.13;3.45;;;;;;;;;;4993646;28;20041;-36
2022/03/04 13:57:38;;;;;;;5.60;3.38;;;;;;;;;;4952229;29;20046;-36
2022/03/04 14:00:10;;;;;;;6.07;3.45;;;;;;;;;;4952634;29;20060;-36
2022/03/04 14:02:39;;;;;;;5.50;2.75;;;;;;;;;;4974499;28;20038;-37
2022/03/04 14:05:04;;;;;;;8.18;3.90;;;;;;;;;;4993336;28;20041;-36
2022/03/04 14:07:46;;;;;;;5.88;2.97;;;;;;;;;;4993690;28;20041;-36
2022/03/04 14:10:16;;;;;;;9.75;4.35;;;;;;;;;;4991810;28;20096;-36
2022/03/04 14:12:42;;;;;;;8.77;3.67;;;;;;;;;;4993576;28;20026;-36
2022/03/04 14:15:08;;;;;;;3.85;2.65;;;;;;;;;;4993702;28;20510;-35
2022/03/04 14:17:52;;;;;;;7.50;3.97;;;;;;;;;;4993753;28;20081;-36
2022/03/04 14:20:20;;;;;;;6.25;3.05;;;;;;;;;;4993396;28;20038;-36
2022/03/04 14:22:46;;;;;;;8.90;4.45;;;;;;;;;;4993083;28;20025;-37
2022/03/04 14:25:12;;;;;;;8.30;4.72;;;;;;;;;;4992950;28;20026;-36
2022/03/04 14:27:41;;;;;;;6.60;3.83;;;;;;;;;;4992923;28;20023;-36
2022/03/04 14:30:11;;;;;;;7.13;3.55;;;;;;;;;;4991824;28;20029;-36
2022/03/04 14:32:37;;;;;;;8.82;4.90;;;;;;;;;;4993064;28;20050;-36